Time;durP1;ratioP1;P1;durP2;ratioP2;P2;SDS_P1;SDS_P2;PMS_P1;PMS_P2;Temp;Humidity;BMP_temperature;BMP_pressure;BME280_temperature;BME280_humidity;BME280_pressure;Samples;Min_cycle;Max_cycle;Signal;HPM_P1;HPM_P2
2023/01/19 00:00:43;;;;;;;8.75;3.80;;;0.80;99.90;;;;;;5056743;28;20067;-54
2023/01/19 00:03:14;;;;;;;12.65;3.60;;;0.80;99.90;;;;;;5056593;28;20463;-54
2023/01/19 00:05:42;;;;;;;9.88;3.60;;;0.80;99.90;;;;;;5056965;28;20452;-51
2023/01/19 00:08:15;;;;;;;8.55;3.97;;;0.70;99.90;;;;;;5056472;28;20091;-51
2023/01/19 00:10:42;;;;;;;9.77;4.03;;;0.70;99.90;;;;;;5056852;28;20049;-50
2023/01/19 00:13:09;;;;;;;11.52;3.90;;;0.70;99.90;;;;;;5055964;28;20350;-52
2023/01/19 00:15:35;;;;;;;10.88;4.07;;;0.70;99.90;;;;;;5057226;28;20045;-51
2023/01/19 00:18:02;;;;;;;8.95;3.88;;;0.70;99.90;;;;;;5056931;28;20389;-53
2023/01/19 00:20:31;;;;;;;10.48;3.80;;;0.70;99.90;;;;;;5057023;28;20055;-53
2023/01/19 00:22:58;;;;;;;8.20;3.92;;;0.60;99.90;;;;;;5056258;28;20476;-53
2023/01/19 00:25:25;;;;;;;14.63;4.65;;;0.60;99.90;;;;;;5056587;28;20376;-47
2023/01/19 00:27:52;;;;;;;11.35;4.30;;;0.60;99.90;;;;;;5056463;28;20377;-52
2023/01/19 00:30:19;;;;;;;10.38;3.95;;;0.60;99.90;;;;;;5056487;28;20508;-52
2023/01/19 00:32:46;;;;;;;15.32;5.25;;;0.60;99.90;;;;;;5056995;28;20049;-52
2023/01/19 00:35:12;;;;;;;10.95;4.40;;;0.60;99.90;;;;;;5056789;28;20230;-51
2023/01/19 00:37:39;;;;;;;8.50;3.75;;;0.60;99.90;;;;;;5056760;28;20048;-47
2023/01/19 00:40:06;;;;;;;11.05;4.50;;;0.60;99.90;;;;;;5056577;28;20047;-48
2023/01/19 00:42:39;;;;;;;7.72;3.65;;;0.50;99.90;;;;;;5056792;28;20114;-53
2023/01/19 00:45:06;;;;;;;13.88;4.50;;;0.50;99.90;;;;;;5056261;28;20037;-53
2023/01/19 00:47:32;;;;;;;10.20;3.92;;;0.50;99.90;;;;;;5056064;28;20041;-52
2023/01/19 00:49:59;;;;;;;10.35;3.47;;;0.50;99.90;;;;;;5056405;28;20045;-53
2023/01/19 00:52:26;;;;;;;7.32;3.72;;;0.50;99.90;;;;;;5056484;28;20055;-54
2023/01/19 00:54:53;;;;;;;6.93;3.45;;;0.50;99.90;;;;;;5056303;28;20037;-51
2023/01/19 00:57:19;;;;;;;10.57;3.50;;;0.50;99.90;;;;;;5054525;28;20068;-52
2023/01/19 00:59:46;;;;;;;11.90;3.47;;;0.50;99.90;;;;;;5056069;28;20041;-48
2023/01/19 01:02:13;;;;;;;7.32;3.72;;;0.50;99.90;;;;;;5056376;28;20387;-50
2023/01/19 01:04:40;;;;;;;10.23;3.60;;;0.50;99.90;;;;;;5055960;28;20068;-47
2023/01/19 01:07:06;;;;;;;12.10;3.60;;;0.50;99.90;;;;;;5056320;28;20072;-52
2023/01/19 01:09:33;;;;;;;7.20;3.33;;;0.50;99.90;;;;;;5055569;28;20041;-49
2023/01/19 01:12:00;;;;;;;10.60;3.53;;;0.50;99.90;;;;;;5055422;28;20132;-52
2023/01/19 01:14:27;;;;;;;10.98;3.78;;;0.50;99.90;;;;;;5055932;28;20041;-52
2023/01/19 01:16:54;;;;;;;11.27;3.47;;;0.50;99.90;;;;;;5056002;28;20044;-47
2023/01/19 01:19:21;;;;;;;10.73;2.97;;;0.50;99.90;;;;;;5055978;28;20041;-49
2023/01/19 01:21:47;;;;;;;8.27;3.40;;;0.50;99.90;;;;;;5055923;28;20037;-49
2023/01/19 01:24:15;;;;;;;8.48;3.13;;;0.50;99.90;;;;;;5056100;28;20392;-53
2023/01/19 01:26:41;;;;;;;9.85;4.15;;;0.40;99.90;;;;;;5055169;28;20049;-49
2023/01/19 01:29:08;;;;;;;11.88;3.30;;;0.40;99.90;;;;;;5054332;28;20056;-54
2023/01/19 01:31:35;;;;;;;9.13;3.92;;;0.40;99.90;;;;;;5054310;28;20045;-55
2023/01/19 01:34:02;;;;;;;8.75;3.35;;;0.40;99.90;;;;;;5055596;28;20041;-51
2023/01/19 01:36:32;;;;;;;11.20;4.10;;;0.40;99.90;;;;;;5055494;28;20037;-52
2023/01/19 01:38:59;;;;;;;9.20;3.60;;;0.40;99.90;;;;;;5055461;28;20033;-52
2023/01/19 01:41:26;;;;;;;12.63;3.70;;;0.40;99.90;;;;;;5054592;28;20049;-51
2023/01/19 01:43:55;;;;;;;9.30;3.25;;;0.30;99.90;;;;;;5055238;28;20052;-50
2023/01/19 01:46:22;;;;;;;7.88;3.33;;;0.30;99.90;;;;;;5055689;28;20090;-50
2023/01/19 01:48:49;;;;;;;6.80;3.40;;;0.30;99.90;;;;;;5055563;28;20468;-54
2023/01/19 01:51:25;;;;;;;10.48;3.92;;;0.30;99.90;;;;;;5054786;28;20045;-51
2023/01/19 01:53:51;;;;;;;9.00;3.35;;;0.30;99.90;;;;;;5055178;28;20488;-52
2023/01/19 01:56:18;;;;;;;9.45;3.42;;;0.30;99.90;;;;;;5055278;28;20076;-51
2023/01/19 01:58:45;;;;;;;10.38;3.47;;;0.30;99.90;;;;;;5054832;28;20037;-52
2023/01/19 02:03:57;;;;;;;10.43;3.58;;;0.30;99.90;;;;;;5053970;28;20123;-47
2023/01/19 02:06:24;;;;;;;8.13;2.92;;;0.30;99.90;;;;;;5055105;28;20049;-48
2023/01/19 02:14:22;;;;;;;6.37;2.77;;;0.30;99.90;;;;;;5055066;28;20098;-52
2023/01/19 02:16:48;;;;;;;7.05;2.97;;;0.30;99.90;;;;;;5054900;28;20036;-52
2023/01/19 02:19:15;;;;;;;9.68;3.17;;;0.30;99.90;;;;;;5054564;28;20080;-50
2023/01/19 02:21:42;;;;;;;9.90;3.28;;;0.30;99.90;;;;;;5054622;28;20106;-50
2023/01/19 02:24:09;;;;;;;12.48;3.15;;;0.30;99.90;;;;;;5054933;28;20123;-51
2023/01/19 02:26:36;;;;;;;5.95;3.28;;;0.30;99.90;;;;;;5054703;28;20431;-53
2023/01/19 02:29:03;;;;;;;7.95;3.10;;;0.30;99.90;;;;;;5054400;28;20067;-51
2023/01/19 02:31:30;;;;;;;6.15;3.20;;;0.30;99.90;;;;;;5054897;28;20041;-51
2023/01/19 02:33:56;;;;;;;7.80;3.58;;;0.30;99.90;;;;;;5054445;28;20037;-52
2023/01/19 02:36:24;;;;;;;6.78;2.90;;;0.20;99.90;;;;;;5054085;28;20064;-49
2023/01/19 02:38:50;;;;;;;6.55;3.15;;;0.20;99.90;;;;;;5054580;28;20037;-54
2023/01/19 02:41:17;;;;;;;6.97;3.42;;;0.20;99.90;;;;;;5054236;28;20437;-51
2023/01/19 02:43:44;;;;;;;8.23;3.65;;;0.20;99.90;;;;;;5054107;28;20041;-50
2023/01/19 02:46:11;;;;;;;7.03;3.22;;;0.10;99.90;;;;;;5054081;28;20473;-51
2023/01/19 02:48:37;;;;;;;12.27;3.28;;;0.10;99.90;;;;;;5052860;28;20053;-50
2023/01/19 02:51:04;;;;;;;8.75;3.20;;;0.10;99.90;;;;;;5054054;28;20044;-49
2023/01/19 02:53:31;;;;;;;9.45;3.40;;;0.10;99.90;;;;;;5054295;28;20065;-51
2023/01/19 02:55:58;;;;;;;6.63;3.10;;;0.00;99.90;;;;;;5054199;28;20461;-48
2023/01/19 02:58:24;;;;;;;8.45;3.67;;;0.00;99.90;;;;;;5054287;28;20491;-52
2023/01/19 03:00:51;;;;;;;9.77;3.63;;;-0.10;99.90;;;;;;5053659;28;20037;-50
2023/01/19 03:03:18;;;;;;;8.55;3.20;;;-0.10;99.90;;;;;;5053870;28;20037;-52
2023/01/19 03:05:45;;;;;;;7.90;3.13;;;-0.20;99.90;;;;;;5053800;28;20060;-52
2023/01/19 03:08:11;;;;;;;7.88;3.67;;;-0.20;99.90;;;;;;5053584;28;20068;-52
2023/01/19 03:10:38;;;;;;;8.13;3.08;;;-0.20;99.90;;;;;;5053979;28;20534;-50
2023/01/19 03:13:05;;;;;;;8.13;3.30;;;-0.30;99.90;;;;;;5053330;28;20045;-47
2023/01/19 03:15:32;;;;;;;10.57;3.30;;;-0.30;99.90;;;;;;5053659;28;20128;-51
2023/01/19 03:17:58;;;;;;;7.65;3.15;;;-0.30;99.90;;;;;;5053707;28;20039;-49
2023/01/19 03:20:27;;;;;;;6.90;3.92;;;-0.30;99.90;;;;;;5053295;28;20099;-52
2023/01/19 03:22:54;;;;;;;7.13;3.20;;;-0.30;99.90;;;;;;5052303;28;20049;-48
2023/01/19 03:25:21;;;;;;;7.70;3.13;;;-0.40;99.90;;;;;;5053733;28;20049;-49
2023/01/19 03:27:48;;;;;;;7.72;3.05;;;-0.40;99.90;;;;;;5053304;28;20095;-48
2023/01/19 03:30:14;;;;;;;8.85;3.45;;;-0.40;99.90;;;;;;5052402;28;20118;-51
2023/01/19 03:32:41;;;;;;;9.98;3.40;;;-0.40;99.90;;;;;;5053488;28;20064;-50
2023/01/19 03:35:08;;;;;;;9.13;3.70;;;-0.40;99.90;;;;;;5053226;28;20480;-50
2023/01/19 03:37:35;;;;;;;10.77;3.50;;;-0.30;99.90;;;;;;5053466;28;20045;-52
2023/01/19 03:40:01;;;;;;;7.63;3.50;;;-0.30;99.90;;;;;;5053670;28;20060;-55
2023/01/19 03:42:28;;;;;;;11.85;4.18;;;-0.30;99.90;;;;;;5053250;28;20103;-47
2023/01/19 03:44:55;;;;;;;6.53;3.65;;;-0.40;99.90;;;;;;5053116;28;20087;-49
2023/01/19 03:47:22;;;;;;;7.25;3.50;;;-0.30;99.90;;;;;;5053124;28;20045;-53
2023/01/19 03:49:49;;;;;;;8.88;3.28;;;-0.40;99.90;;;;;;5052981;28;20091;-52
2023/01/19 03:52:16;;;;;;;6.60;3.42;;;-0.30;99.90;;;;;;5053400;28;20060;-48
2023/01/19 03:54:43;;;;;;;6.57;3.55;;;-0.40;99.90;;;;;;5053046;28;20091;-50
2023/01/19 03:57:10;;;;;;;10.93;3.60;;;-0.40;99.90;;;;;;5053089;28;20049;-52
2023/01/19 03:59:36;;;;;;;8.43;3.85;;;-0.40;99.90;;;;;;5052047;28;20071;-49
2023/01/19 04:02:03;;;;;;;10.75;3.50;;;-0.40;99.90;;;;;;5053506;28;20080;-53
2023/01/19 04:04:30;;;;;;;5.53;3.22;;;-0.40;99.90;;;;;;5053188;28;20087;-51
2023/01/19 04:06:56;;;;;;;9.10;4.05;;;-0.40;99.90;;;;;;5053247;28;20392;-51
2023/01/19 04:09:24;;;;;;;7.45;3.95;;;-0.40;99.90;;;;;;5052678;28;20087;-52
2023/01/19 04:11:51;;;;;;;11.02;3.38;;;-0.40;99.90;;;;;;5051567;28;20418;-47
2023/01/19 04:14:18;;;;;;;12.15;4.45;;;-0.40;99.90;;;;;;5053350;28;20052;-50
2023/01/19 04:16:45;;;;;;;7.88;3.47;;;-0.40;99.90;;;;;;5052021;28;20041;-53
2023/01/19 04:19:11;;;;;;;8.98;3.38;;;-0.40;99.90;;;;;;5053085;28;20041;-52
2023/01/19 04:21:38;;;;;;;8.73;3.42;;;-0.40;99.90;;;;;;5053046;28;20548;-51
2023/01/19 04:24:05;;;;;;;7.70;3.55;;;-0.40;99.90;;;;;;5053269;28;20045;-49
2023/01/19 04:26:32;;;;;;;9.32;3.47;;;-0.50;99.90;;;;;;5052599;28;20095;-50
2023/01/19 04:28:58;;;;;;;11.07;3.50;;;-0.50;99.90;;;;;;5053277;28;20468;-53
2023/01/19 04:31:26;;;;;;;9.07;3.70;;;-0.40;99.90;;;;;;5054919;28;20037;-52
2023/01/19 04:33:52;;;;;;;8.95;3.88;;;-0.40;99.90;;;;;;5057199;28;20064;-50
2023/01/19 04:36:19;;;;;;;12.65;3.97;;;-0.40;99.90;;;;;;5056997;28;20040;-47
2023/01/19 04:38:47;;;;;;;9.00;3.30;;;-0.40;99.90;;;;;;5056359;28;20102;-51
2023/01/19 04:41:14;;;;;;;8.50;3.38;;;-0.50;99.90;;;;;;5056271;28;20045;-53
2023/01/19 04:43:40;;;;;;;13.75;3.80;;;-0.40;99.90;;;;;;5056691;28;20106;-49
2023/01/19 04:46:07;;;;;;;10.20;3.95;;;-0.50;99.90;;;;;;5056482;28;20040;-49
2023/01/19 04:48:34;;;;;;;7.45;3.50;;;-0.50;99.90;;;;;;5056813;28;20127;-49
2023/01/19 04:51:01;;;;;;;10.48;3.75;;;-0.50;99.90;;;;;;5056222;28;20041;-53
2023/01/19 04:53:27;;;;;;;10.43;3.53;;;-0.50;99.90;;;;;;5055901;28;20037;-48
2023/01/19 04:55:54;;;;;;;11.05;3.58;;;-0.50;99.90;;;;;;5055832;28;20120;-54
2023/01/19 04:58:21;;;;;;;8.70;3.58;;;-0.50;99.90;;;;;;5056197;28;20064;-52
2023/01/19 05:00:49;;;;;;;12.90;3.60;;;-0.50;99.90;;;;;;5056332;28;20407;-47
2023/01/19 05:03:18;;;;;;;11.25;4.75;;;-0.40;99.90;;;;;;5056074;28;20056;-55
2023/01/19 05:05:45;;;;;;;9.20;3.42;;;-0.50;99.90;;;;;;5055893;28;20140;-49
2023/01/19 05:08:11;;;;;;;7.80;3.15;;;-0.50;99.90;;;;;;5055890;28;20476;-48
2023/01/19 05:10:38;;;;;;;10.68;3.60;;;-0.50;99.90;;;;;;5055758;28;20044;-51
2023/01/19 05:13:05;;;;;;;9.98;3.80;;;-0.50;99.90;;;;;;5055454;28;20059;-52
2023/01/19 05:15:31;;;;;;;9.95;3.83;;;-0.50;99.90;;;;;;5055734;28;20041;-49
2023/01/19 05:17:58;;;;;;;7.18;3.83;;;-0.50;99.90;;;;;;5056119;28;20087;-48
2023/01/19 05:20:25;;;;;;;11.70;3.50;;;-0.50;99.90;;;;;;5055577;28;20124;-51
2023/01/19 05:22:52;;;;;;;11.40;3.60;;;-0.50;99.90;;;;;;5056299;28;20403;-48
2023/01/19 05:25:19;;;;;;;7.93;3.47;;;-0.50;99.90;;;;;;5055746;28;20056;-49
2023/01/19 05:27:45;;;;;;;8.45;3.50;;;-0.50;99.90;;;;;;5055763;28;20132;-53
2023/01/19 05:30:12;;;;;;;9.20;3.90;;;-0.50;99.90;;;;;;5055270;28;20052;-53
2023/01/19 05:32:39;;;;;;;7.65;3.60;;;-0.50;99.90;;;;;;5055240;28;20392;-50
2023/01/19 05:35:06;;;;;;;9.43;3.53;;;-0.60;99.90;;;;;;5055500;28;20045;-48
2023/01/19 05:37:32;;;;;;;9.48;3.72;;;-0.50;99.90;;;;;;5055135;28;20043;-49
2023/01/19 05:39:59;;;;;;;7.05;3.55;;;-0.50;99.90;;;;;;5055212;28;20068;-50
2023/01/19 05:42:26;;;;;;;8.52;3.63;;;-0.50;99.90;;;;;;5054527;28;20044;-49
2023/01/19 05:44:53;;;;;;;7.15;3.60;;;-0.60;99.90;;;;;;5055473;28;20480;-49
2023/01/19 05:47:19;;;;;;;12.63;3.90;;;-0.60;99.90;;;;;;5054847;28;20041;-54
2023/01/19 05:49:46;;;;;;;9.88;4.00;;;-0.60;99.90;;;;;;5055297;28;20041;-48
2023/01/19 05:52:13;;;;;;;10.20;4.13;;;-0.60;99.90;;;;;;5055063;28;20048;-49
2023/01/19 05:54:40;;;;;;;9.20;3.65;;;-0.60;99.90;;;;;;5053713;28;20052;-51
2023/01/19 05:57:07;;;;;;;8.85;3.80;;;-0.60;99.90;;;;;;5036954;28;20041;-48
2023/01/19 05:59:34;;;;;;;8.45;3.53;;;-0.60;99.90;;;;;;5054816;28;20094;-49
2023/01/19 06:02:00;;;;;;;9.80;4.50;;;-0.60;99.90;;;;;;5053977;28;20045;-49
2023/01/19 06:04:27;;;;;;;11.02;4.20;;;-0.60;99.90;;;;;;5054649;28;20044;-50
2023/01/19 06:06:54;;;;;;;7.30;3.75;;;-0.60;99.90;;;;;;5054628;28;20045;-47
2023/01/19 06:09:21;;;;;;;7.60;4.50;;;-0.60;99.90;;;;;;5054761;28;20053;-48
2023/01/19 06:11:47;;;;;;;6.68;3.50;;;-0.60;99.90;;;;;;5054353;28;20090;-48
2023/01/19 06:14:14;;;;;;;9.02;4.78;;;-0.60;99.90;;;;;;5053514;28;20049;-52
2023/01/19 06:16:41;;;;;;;8.23;3.70;;;-0.60;99.90;;;;;;5054496;28;20040;-47
2023/01/19 06:19:08;;;;;;;10.00;4.00;;;-0.60;99.90;;;;;;5054523;28;20045;-49
2023/01/19 06:21:35;;;;;;;11.52;4.57;;;-0.60;99.90;;;;;;5054516;28;20454;-51
2023/01/19 06:24:02;;;;;;;10.32;3.90;;;-0.60;99.90;;;;;;5054301;28;20087;-50
2023/01/19 06:26:29;;;;;;;8.50;3.80;;;-0.60;99.90;;;;;;5053290;28;20090;-56
2023/01/19 06:28:56;;;;;;;8.73;3.75;;;-0.60;99.90;;;;;;5054489;28;20063;-48
2023/01/19 06:31:22;;;;;;;10.05;4.20;;;-0.60;99.90;;;;;;5054787;28;20079;-53
2023/01/19 06:33:49;;;;;;;11.68;3.88;;;-0.60;99.90;;;;;;5054347;28;20422;-53
2023/01/19 06:36:16;;;;;;;10.52;4.25;;;-0.60;99.90;;;;;;5054316;28;20041;-53
2023/01/19 06:38:43;;;;;;;7.25;3.83;;;-0.60;99.90;;;;;;5054587;28;20094;-52
2023/01/19 06:41:09;;;;;;;12.95;4.13;;;-0.60;99.90;;;;;;5054357;28;20047;-51
2023/01/19 06:43:36;;;;;;;10.10;4.28;;;-0.60;99.90;;;;;;5054336;28;20044;-46
2023/01/19 06:46:03;;;;;;;10.68;5.03;;;-0.70;99.90;;;;;;5054329;28;20036;-51
2023/01/19 06:48:30;;;;;;;6.95;4.22;;;-0.70;99.90;;;;;;5053234;28;20373;-48
2023/01/19 06:50:57;;;;;;;13.15;5.10;;;-0.70;99.90;;;;;;5053632;28;20484;-54
2023/01/19 06:53:26;;;;;;;9.07;5.30;;;-0.70;99.90;;;;;;5054974;28;20476;-52
2023/01/19 06:55:53;;;;;;;13.57;4.78;;;-0.70;99.90;;;;;;5053803;28;20041;-50
2023/01/19 06:58:20;;;;;;;8.75;5.38;;;-0.70;99.90;;;;;;5053848;28;20048;-51
2023/01/19 07:00:49;;;;;;;9.40;4.95;;;-0.70;99.90;;;;;;5053819;28;20125;-54
2023/01/19 07:03:16;;;;;;;9.10;5.22;;;-0.70;99.90;;;;;;5054165;28;20041;-52
2023/01/19 07:05:43;;;;;;;11.27;5.55;;;-0.80;99.90;;;;;;5053833;28;20037;-55
2023/01/19 07:08:10;;;;;;;11.00;5.00;;;-0.80;99.90;;;;;;5053791;28;20041;-54
2023/01/19 07:10:36;;;;;;;13.25;4.78;;;-0.80;99.90;;;;;;5053740;28;20575;-52
2023/01/19 07:13:23;;;;;;;13.32;5.28;;;-0.80;99.90;;;;;;5053634;28;20431;-47
2023/01/19 07:15:50;;;;;;;9.65;5.30;;;-0.80;99.90;;;;;;5053586;28;20076;-55
2023/01/19 07:18:17;;;;;;;10.50;4.82;;;-0.70;99.90;;;;;;5054142;28;20036;-50
2023/01/19 07:20:45;;;;;;;9.23;4.80;;;-0.70;99.90;;;;;;5052821;28;20045;-47
2023/01/19 07:23:12;;;;;;;9.93;4.78;;;-0.80;99.90;;;;;;5052583;28;20052;-54
2023/01/19 07:25:39;;;;;;;9.70;4.78;;;-0.70;99.90;;;;;;5053884;28;20049;-47
2023/01/19 07:28:06;;;;;;;8.63;4.63;;;-0.70;99.90;;;;;;5053610;28;20057;-47
2023/01/19 07:30:32;;;;;;;9.80;4.75;;;-0.70;99.90;;;;;;5053554;28;20625;-49
2023/01/19 07:33:01;;;;;;;10.48;4.68;;;-0.70;99.90;;;;;;5053599;28;20044;-48
2023/01/19 07:35:28;;;;;;;9.85;5.30;;;-0.70;99.90;;;;;;5053232;28;20037;-48
2023/01/19 07:37:55;;;;;;;10.88;5.15;;;-0.70;99.90;;;;;;5053010;28;20510;-52
2023/01/19 07:40:22;;;;;;;9.15;4.95;;;-0.70;99.90;;;;;;5053198;28;20049;-54
2023/01/19 07:42:49;;;;;;;13.20;4.65;;;-0.70;99.90;;;;;;5053610;28;20041;-47
2023/01/19 07:45:16;;;;;;;9.35;4.47;;;-0.70;99.90;;;;;;5053570;28;20084;-50
2023/01/19 07:47:43;;;;;;;8.85;4.43;;;-0.70;99.90;;;;;;5053253;28;20049;-50
2023/01/19 07:50:10;;;;;;;9.52;4.63;;;-0.70;99.90;;;;;;5052072;28;20041;-50
2023/01/19 07:52:37;;;;;;;10.50;4.43;;;-0.70;99.90;;;;;;5052567;28;20033;-50
2023/01/19 07:55:03;;;;;;;6.78;4.00;;;-0.70;99.90;;;;;;5052943;28;20103;-52
2023/01/19 07:57:30;;;;;;;7.55;4.32;;;-0.70;99.90;;;;;;5051618;28;20048;-50
2023/01/19 07:59:57;;;;;;;8.93;4.78;;;-0.60;99.90;;;;;;5050564;28;20041;-51
2023/01/19 08:02:24;;;;;;;9.13;4.65;;;-0.70;99.90;;;;;;5051872;28;20045;-47
2023/01/19 08:04:51;;;;;;;11.10;5.32;;;-0.60;99.90;;;;;;5050580;28;20389;-50
2023/01/19 08:07:18;;;;;;;6.75;4.38;;;-0.60;99.90;;;;;;5055591;28;20052;-55
2023/01/19 08:09:45;;;;;;;7.30;4.28;;;-0.60;99.90;;;;;;5055688;28;20450;-52
2023/01/19 08:12:11;;;;;;;10.52;4.70;;;-0.60;99.90;;;;;;5056892;28;20057;-54
2023/01/19 08:14:38;;;;;;;8.35;4.47;;;-0.60;99.90;;;;;;5057091;28;20041;-50
2023/01/19 08:17:05;;;;;;;13.73;4.90;;;-0.60;99.90;;;;;;5056834;28;20407;-53
2023/01/19 08:19:32;;;;;;;10.68;4.50;;;-0.60;99.90;;;;;;5056775;28;20399;-49
2023/01/19 08:21:59;;;;;;;12.95;5.20;;;-0.60;99.90;;;;;;5056580;28;20447;-47
2023/01/19 08:24:27;;;;;;;11.77;4.85;;;-0.60;99.90;;;;;;5055616;28;20152;-53
2023/01/19 08:26:54;;;;;;;11.65;4.85;;;-0.60;99.90;;;;;;5056575;28;20045;-52
2023/01/19 08:29:21;;;;;;;12.75;5.13;;;-0.60;99.90;;;;;;5056793;28;20098;-54
2023/01/19 08:31:48;;;;;;;9.60;4.68;;;-0.60;99.90;;;;;;5056854;28;20045;-52
2023/01/19 08:34:15;;;;;;;8.38;4.40;;;-0.50;99.90;;;;;;5056626;28;20045;-49
2023/01/19 08:36:41;;;;;;;10.00;5.03;;;-0.60;99.90;;;;;;5056628;28;20064;-48
2023/01/19 08:39:08;;;;;;;12.95;4.88;;;-0.50;99.90;;;;;;5057107;28;20091;-46
2023/01/19 08:41:35;;;;;;;11.35;4.65;;;-0.50;99.90;;;;;;5056492;28;20388;-54
2023/01/19 08:44:02;;;;;;;12.32;4.47;;;-0.50;99.90;;;;;;5056871;28;20048;-49
2023/01/19 08:46:28;;;;;;;10.43;4.50;;;-0.40;99.90;;;;;;5056357;28;20045;-55
2023/01/19 08:48:55;;;;;;;12.20;7.85;;;-0.40;99.90;;;;;;5056637;28;20083;-52
2023/01/19 08:51:22;;;;;;;9.38;5.10;;;-0.40;99.90;;;;;;5055323;28;20049;-53
2023/01/19 08:53:49;;;;;;;7.85;4.05;;;-0.40;99.90;;;;;;5056264;28;20037;-51
2023/01/19 08:56:16;;;;;;;8.82;4.25;;;-0.40;99.90;;;;;;5056168;28;20041;-53
2023/01/19 08:58:46;;;;;;;8.93;4.32;;;-0.30;99.90;;;;;;5056415;28;20045;-49
2023/01/19 09:01:28;;;;;;;8.75;3.78;;;-0.40;99.90;;;;;;5056837;28;20362;-49
2023/01/19 09:03:55;;;;;;;9.55;3.90;;;-0.40;99.90;;;;;;5056210;28;20101;-47
2023/01/19 09:06:24;;;;;;;9.25;4.05;;;-0.40;99.90;;;;;;5056256;28;20041;-53
2023/01/19 09:08:50;;;;;;;10.18;4.45;;;-0.30;99.90;;;;;;5055846;28;20045;-47
2023/01/19 09:11:18;;;;;;;12.82;5.78;;;-0.30;99.90;;;;;;5054490;28;20482;-60
2023/01/19 09:13:45;;;;;;;8.70;4.10;;;-0.30;99.90;;;;;;5055690;28;20059;-51
2023/01/19 09:16:13;;;;;;;7.72;4.47;;;-0.40;99.90;;;;;;5055437;28;20063;-52
2023/01/19 09:18:40;;;;;;;8.77;4.43;;;-0.30;99.90;;;;;;5054909;28;20040;-47
2023/01/19 09:21:07;;;;;;;8.20;4.22;;;-0.40;99.90;;;;;;5055646;28;20061;-46
2023/01/19 09:23:34;;;;;;;8.25;5.15;;;-0.40;99.90;;;;;;5055533;28;20049;-53
2023/01/19 09:26:01;;;;;;;9.57;4.50;;;-0.30;99.90;;;;;;5054638;28;20052;-52
2023/01/19 09:28:28;;;;;;;8.05;4.63;;;-0.30;99.90;;;;;;5054676;28;20041;-50
2023/01/19 09:30:55;;;;;;;9.27;4.40;;;-0.30;99.90;;;;;;5055748;28;20072;-52
2023/01/19 09:33:22;;;;;;;11.13;4.88;;;-0.20;99.90;;;;;;5037988;28;20041;-52
2023/01/19 09:35:50;;;;;;;8.63;4.57;;;-0.20;99.90;;;;;;5055788;28;20045;-48
2023/01/19 09:38:17;;;;;;;8.88;4.57;;;-0.20;99.90;;;;;;5056027;28;20119;-48
2023/01/19 09:40:44;;;;;;;10.60;4.75;;;-0.10;99.90;;;;;;5055570;28;20068;-51
2023/01/19 09:43:10;;;;;;;9.70;4.53;;;-0.10;99.90;;;;;;5055892;28;20102;-51
2023/01/19 09:45:37;;;;;;;11.50;4.80;;;0.00;99.90;;;;;;5055383;28;20041;-49
2023/01/19 09:48:04;;;;;;;9.00;4.70;;;0.00;99.90;;;;;;5055395;28;20037;-50
2023/01/19 09:50:31;;;;;;;9.80;5.07;;;0.10;99.90;;;;;;5055706;28;20045;-50
2023/01/19 09:52:59;;;;;;;10.48;5.18;;;0.10;99.90;;;;;;5055343;28;20090;-52
2023/01/19 09:55:27;;;;;;;11.40;5.25;;;0.10;99.90;;;;;;5055404;28;20041;-50
2023/01/19 09:57:54;;;;;;;14.50;5.63;;;0.10;99.90;;;;;;5055054;28;20043;-51
2023/01/19 10:00:22;;;;;;;7.88;5.05;;;0.20;99.90;;;;;;5055070;28;20535;-50
2023/01/19 10:02:50;;;;;;;11.45;4.95;;;0.20;99.90;;;;;;5053844;28;20177;-54
2023/01/19 10:05:17;;;;;;;10.75;4.90;;;0.30;99.90;;;;;;5054799;28;20044;-49
2023/01/19 10:07:44;;;;;;;9.93;5.10;;;0.30;99.90;;;;;;5055400;28;20090;-49
2023/01/19 10:10:10;;;;;;;7.03;4.20;;;0.40;99.90;;;;;;5054972;28;20045;-50
2023/01/19 10:12:37;;;;;;;13.43;5.10;;;0.40;99.90;;;;;;5053448;28;20045;-50
2023/01/19 10:15:05;;;;;;;15.90;4.95;;;0.50;99.90;;;;;;5055036;28;20376;-47
2023/01/19 10:17:32;;;;;;;10.75;4.93;;;0.60;99.90;;;;;;5055018;28;20103;-47
2023/01/19 10:19:59;;;;;;;9.20;5.13;;;0.60;99.90;;;;;;5054814;28;20041;-47
2023/01/19 10:22:25;;;;;;;8.55;4.47;;;0.70;99.90;;;;;;5054932;28;20537;-50
2023/01/19 10:24:52;;;;;;;12.00;4.97;;;0.70;99.90;;;;;;5054527;28;20059;-48
2023/01/19 10:27:19;;;;;;;9.85;4.45;;;0.80;99.90;;;;;;5055004;28;20083;-49
2023/01/19 10:29:46;;;;;;;9.25;4.47;;;0.80;99.90;;;;;;5053093;28;20373;-48
2023/01/19 10:32:13;;;;;;;11.05;4.97;;;0.90;99.90;;;;;;5054383;28;20052;-48
2023/01/19 10:34:40;;;;;;;11.88;4.75;;;0.90;99.90;;;;;;5054543;28;20076;-53
2023/01/19 10:37:07;;;;;;;10.63;4.20;;;1.00;99.90;;;;;;5054737;28;20045;-53
2023/01/19 10:39:34;;;;;;;6.40;3.85;;;1.00;99.90;;;;;;5054566;28;20041;-50
2023/01/19 10:42:04;;;;;;;7.80;4.10;;;1.10;99.90;;;;;;5054699;28;20127;-49
2023/01/19 10:44:31;;;;;;;9.90;4.18;;;1.10;99.90;;;;;;5054419;28;20075;-51
2023/01/19 10:46:58;;;;;;;8.90;4.30;;;1.20;99.90;;;;;;5054245;28;20045;-50
2023/01/19 10:49:25;;;;;;;9.57;4.20;;;1.20;99.90;;;;;;5054701;28;20076;-53
2023/01/19 10:51:52;;;;;;;13.48;4.60;;;1.30;99.90;;;;;;5053865;28;20120;-52
2023/01/19 10:54:18;;;;;;;11.18;5.00;;;1.30;99.90;;;;;;5052532;28;20044;-50
2023/01/19 10:56:45;;;;;;;11.00;3.85;;;1.30;99.90;;;;;;5054052;28;20224;-52
2023/01/19 10:59:12;;;;;;;14.10;3.67;;;1.40;99.90;;;;;;5054174;28;20037;-52
2023/01/19 11:01:39;;;;;;;8.18;3.83;;;1.40;99.90;;;;;;5054095;28;20061;-52
2023/01/19 11:04:06;;;;;;;9.27;3.83;;;1.50;99.90;;;;;;5054120;28;20049;-49
2023/01/19 11:06:34;;;;;;;9.40;3.95;;;1.50;99.90;;;;;;5053085;28;20059;-50
2023/01/19 11:09:00;;;;;;;10.55;4.10;;;1.60;99.90;;;;;;5053903;28;20459;-55
2023/01/19 11:11:27;;;;;;;8.23;4.22;;;1.60;99.90;;;;;;5053984;28;20103;-50
2023/01/19 11:13:54;;;;;;;8.10;3.90;;;1.60;99.90;;;;;;5053636;28;20049;-50
2023/01/19 11:16:20;;;;;;;9.18;3.95;;;1.70;99.90;;;;;;5052677;28;20391;-53
2023/01/19 11:18:47;;;;;;;6.18;3.05;;;1.80;99.90;;;;;;5053441;28;20067;-53
2023/01/19 11:21:14;;;;;;;9.02;3.53;;;1.80;99.90;;;;;;5053850;28;20098;-55
2023/01/19 11:23:41;;;;;;;11.32;4.50;;;1.90;99.90;;;;;;5053971;28;20484;-55
2023/01/19 11:26:08;;;;;;;11.85;3.45;;;2.00;99.90;;;;;;5053712;28;20433;-51
2023/01/19 11:28:35;;;;;;;8.50;3.78;;;2.00;99.90;;;;;;5053909;28;20427;-52
2023/01/19 11:31:02;;;;;;;9.60;3.08;;;2.10;99.90;;;;;;5053743;28;20049;-54
2023/01/19 11:33:29;;;;;;;8.70;3.05;;;2.10;99.90;;;;;;5053737;28;20048;-47
2023/01/19 11:35:55;;;;;;;6.97;3.20;;;2.20;99.90;;;;;;5053246;28;20033;-53
2023/01/19 11:38:24;;;;;;;7.85;3.35;;;2.20;99.90;;;;;;5053558;28;20098;-54
2023/01/19 11:40:51;;;;;;;9.93;3.33;;;2.30;99.90;;;;;;5053021;28;20444;-51
2023/01/19 11:43:18;;;;;;;8.25;3.00;;;2.40;99.90;;;;;;5052143;28;20041;-52
2023/01/19 11:45:45;;;;;;;8.10;3.60;;;2.40;99.90;;;;;;5053490;28;20099;-49
2023/01/19 11:48:11;;;;;;;8.43;3.70;;;2.50;99.90;;;;;;5053657;28;20435;-55
2023/01/19 11:50:38;;;;;;;10.65;3.95;;;2.60;99.90;;;;;;5053845;28;20183;-52
2023/01/19 11:53:05;;;;;;;9.95;3.97;;;2.70;99.90;;;;;;5052696;28;20403;-52
2023/01/19 11:55:32;;;;;;;10.13;3.55;;;2.80;99.90;;;;;;5053419;28;20041;-54
2023/01/19 11:57:59;;;;;;;7.57;3.17;;;2.80;99.90;;;;;;5053517;28;20090;-52
2023/01/19 12:00:27;;;;;;;8.93;3.25;;;2.90;99.90;;;;;;5053336;28;20125;-49
2023/01/19 12:02:54;;;;;;;9.50;3.00;;;3.00;99.90;;;;;;5052792;28;20037;-53
2023/01/19 12:05:21;;;;;;;8.93;3.17;;;3.10;99.90;;;;;;5053486;28;20067;-48
2023/01/19 12:07:48;;;;;;;13.13;3.22;;;3.20;99.90;;;;;;5053198;28;20369;-52
2023/01/19 12:10:15;;;;;;;12.23;3.42;;;3.20;99.90;;;;;;5053618;28;20118;-53
2023/01/19 12:12:42;;;;;;;10.40;3.55;;;3.30;99.90;;;;;;5053495;28;20107;-50
2023/01/19 12:15:08;;;;;;;9.00;3.60;;;3.50;99.90;;;;;;5053369;28;20084;-52
2023/01/19 12:17:35;;;;;;;9.05;3.58;;;3.60;99.90;;;;;;5051751;28;20060;-52
2023/01/19 12:20:02;;;;;;;9.02;3.20;;;3.70;99.90;;;;;;5053286;28;20037;-51
2023/01/19 12:22:29;;;;;;;9.82;3.47;;;3.80;99.90;;;;;;5052013;28;20033;-53
2023/01/19 12:24:55;;;;;;;10.63;3.20;;;3.80;99.90;;;;;;5053227;28;20037;-55
2023/01/19 12:27:22;;;;;;;6.45;3.40;;;3.90;99.90;;;;;;5053024;28;20099;-54
2023/01/19 12:29:49;;;;;;;8.15;3.63;;;4.00;99.90;;;;;;5052868;28;20044;-53
2023/01/19 12:32:16;;;;;;;8.90;4.05;;;4.00;99.90;;;;;;5051698;28;20056;-55
2023/01/19 12:34:43;;;;;;;8.48;3.35;;;4.00;99.90;;;;;;5053122;28;20381;-54
2023/01/19 12:37:09;;;;;;;12.10;4.22;;;4.00;99.90;;;;;;5052865;28;20411;-55
2023/01/19 12:39:39;;;;;;;10.00;3.85;;;4.00;99.90;;;;;;5052694;28;20067;-55
2023/01/19 12:42:05;;;;;;;12.63;3.38;;;4.00;99.90;;;;;;5052369;28;20037;-55
2023/01/19 12:44:35;;;;;;;10.25;3.97;;;4.00;99.90;;;;;;5052683;28;20365;-52
2023/01/19 12:47:05;;;;;;;11.40;4.30;;;4.00;99.90;;;;;;5052619;28;20041;-50
2023/01/19 12:49:32;;;;;;;7.43;3.60;;;4.10;99.90;;;;;;5052815;28;20041;-56
2023/01/19 12:51:58;;;;;;;9.43;4.15;;;4.00;99.90;;;;;;5053964;28;20041;-55
2023/01/19 12:54:25;;;;;;;16.10;5.03;;;4.00;99.90;;;;;;5056321;28;20041;-55